Dades meteomassalio
Diari Summary for Marc 12, 2017 Units:  Metric    English   Both
« Previous Day
Next Day »
Diari Semanal Mensual Anual Personalitzat
  Maxima: Minima: Mijana:
Temperatura: -17.8 °C -12.9 °C -11.7 °C
Rosada: -17.8 °C -15.4 °C -14.9 °C
Humitat: Humidity % 47 % 67 %
Velocitat del vent: 0 km/h 25.9 km/h 52.3 km/h
Racha vent: 0 km/h - -
Vent:- - WNW
Pressio: 0 hPa 34313.7 hPa -
Pluja: 7.62 mm    
Historical Graphs
 
 
Tabular Data for Marc 12, 2017
Time Temperature Dew Point Pressure Wind Wind Speed Wind Gust Humidity Rainfall Rate (Hourly) solar Conditions
-17.8 °C -17.8 °C 0 hPa Calm     Humidity % 0 mm SolarRadiationWatts/m^2 W/m2 Conditions
15:33 -7.3 °C -13.4 °C 34327.3 hPa NNW 69.8 km/h 69.8 km/h 49 % 0 mm 605.0 W/m2 CLR
15:38 -7.3 °C -13.6 °C 34327.3 hPa NNE 59.5 km/h 59.5 km/h 48 % 0 mm 564.0 W/m2 CLR
15:43 -7.4 °C -13.8 °C 34313.7 hPa NW 77.4 km/h 77.4 km/h 47 % 0 mm 564.0 W/m2 CLR
15:49 -7.4 °C -13.7 °C 34313.7 hPa NW 47.6 km/h 47.6 km/h 48 % 0 mm 626.0 W/m2 CLR
15:54 -7.4 °C -13.7 °C 34313.7 hPa NW 64.7 km/h 64.7 km/h 48 % 0 mm 278.0 W/m2 CLR
16:00 -7.6 °C -13.8 °C 34313.7 hPa NNW 68.6 km/h 68.6 km/h 48 % 0 mm 696.0 W/m2 CLR
16:06 -7.7 °C -13.7 °C 34313.7 hPa NNW 53.6 km/h 53.6 km/h 49 % 0 mm 696.0 W/m2 CLR
18:30 -10.9 °C -14.5 °C 34371.3 hPa WNW 68.6 km/h 68.6 km/h 65 % 0 mm 35.0 W/m2 BKN
18:35 -11 °C -14.4 °C 34371.3 hPa NW 65.5 km/h 65.5 km/h 66 % 0 mm 25.0 W/m2 BKN
18:40 -11.2 °C -14.6 °C 34371.3 hPa WNW 65.5 km/h 65.5 km/h 66 % 0 mm 14.0 W/m2 BKN
18:45 -11.3 °C -14.6 °C 34371.3 hPa NW 83.4 km/h 83.4 km/h 67 % 0 mm 9.0 W/m2 BKN
18:48 -11.3 °C -14.6 °C 34371.3 hPa NW 77.4 km/h 77.4 km/h 68 % 0 mm 7.0 W/m2 BKN
18:53 -11.4 °C -14.6 °C 34371.3 hPa NW 83.4 km/h 83.4 km/h 68 % 0 mm 5.0 W/m2 OVC
18:58 -11.5 °C -14.6 °C 34371.3 hPa WNW 77.4 km/h 77.4 km/h 69 % 0 mm 0.0 W/m2 OVC
19:03 -11.6 °C -14.6 °C 34384.8 hPa WNW 53.6 km/h 53.6 km/h 69 % 0 mm 0.0 W/m2 OVC
19:08 -11.6 °C -14.6 °C 34384.8 hPa NW 50.7 km/h 50.7 km/h 69 % 0 mm 0.0 W/m2 OVC
19:13 -11.6 °C -14.7 °C 34395 hPa WNW 44.7 km/h 44.7 km/h 69 % 0 mm 0.0 W/m2 CLR
19:18 -11.6 °C -14.6 °C 34405.1 hPa WNW 41.4 km/h 41.4 km/h 70 % 0 mm 0.0 W/m2 CLR
19:23 -11.7 °C -14.6 °C 34405.1 hPa NW 54.4 km/h 54.4 km/h 70 % 0 mm 0.0 W/m2 CLR
19:28 -11.7 °C -14.5 °C 34405.1 hPa WNW 41.7 km/h 41.7 km/h 71 % 0 mm 0.0 W/m2 CLR
19:33 -11.7 °C -14.5 °C 34418.7 hPa West 29.8 km/h 29.8 km/h 71 % 0 mm 0.0 W/m2 CLR
19:38 -11.7 °C -14.6 °C 34418.7 hPa WNW 38.8 km/h 38.8 km/h 71 % 0 mm 0.0 W/m2 CLR
19:43 -11.7 °C -14.6 °C 34418.7 hPa NW 35.7 km/h 35.7 km/h 71 % 0 mm 0.0 W/m2 CLR
19:48 -11.8 °C -14.6 °C 34418.7 hPa West 44.7 km/h 44.7 km/h 71 % 0 mm 0.0 W/m2 CLR
19:53 -11.8 °C -14.6 °C 34428.8 hPa WNW 44.7 km/h 44.7 km/h 71 % 0 mm 0.0 W/m2 CLR
19:58 -11.8 °C -14.6 °C 34428.8 hPa West 41.4 km/h 41.4 km/h 71 % 0 mm 0.0 W/m2 CLR
20:03 -11.8 °C -14.6 °C 34428.8 hPa NW 41.7 km/h 41.7 km/h 71 % 0 mm 0.0 W/m2 CLR
20:08 -11.8 °C -14.6 °C 34418.7 hPa West 35.7 km/h 35.7 km/h 72 % 0 mm 0.0 W/m2 CLR
20:13 -11.9 °C -14.7 °C 34418.7 hPa WNW 64.7 km/h 64.7 km/h 71 % 0 mm 0.0 W/m2 CLR
20:18 -12 °C -14.8 °C 34418.7 hPa NW 62.6 km/h 62.6 km/h 71 % 0 mm 0.0 W/m2 CLR
20:23 -12.1 °C -14.8 °C 34418.7 hPa West 62.6 km/h 62.6 km/h 71 % 0 mm 0.0 W/m2 CLR
20:28 -12.1 °C -14.9 °C 34418.7 hPa WNW 59.5 km/h 59.5 km/h 71 % 0 mm 0.0 W/m2 CLR
20:33 -12.1 °C -14.9 °C 34418.7 hPa NW 50.7 km/h 50.7 km/h 71 % 0 mm 0.0 W/m2 CLR
20:38 -12.1 °C -14.9 °C 34418.7 hPa NW 53.6 km/h 53.6 km/h 71 % 0 mm 0.0 W/m2 CLR
20:43 -12.1 °C -14.9 °C 34418.7 hPa WNW 56.6 km/h 56.6 km/h 71 % 0 mm 0.0 W/m2 CLR
20:48 -12.1 °C -15.1 °C 34418.7 hPa NW 69.8 km/h 69.8 km/h 70 % 0 mm 0.0 W/m2 CLR
20:53 -12.1 °C -15.1 °C 34405.1 hPa WNW 68.6 km/h 68.6 km/h 70 % 0 mm 0.0 W/m2 CLR
20:58 -12.2 °C -15.1 °C 34405.1 hPa WNW 49.2 km/h 49.2 km/h 70 % 0 mm 0.0 W/m2 CLR
21:03 -12.2 °C -15.1 °C 34405.1 hPa WNW 53.6 km/h 53.6 km/h 70 % 0 mm 0.0 W/m2 CLR
21:08 -12.2 °C -15.1 °C 34418.7 hPa WNW 47.6 km/h 47.6 km/h 70 % 0 mm 0.0 W/m2 CLR
21:13 -12.2 °C -15.1 °C 34418.7 hPa WNW 74.5 km/h 74.5 km/h 70 % 0 mm 0.0 W/m2 CLR
21:18 -12.2 °C -15.1 °C 34418.7 hPa WNW 50.7 km/h 50.7 km/h 70 % 0 mm 0.0 W/m2 CLR
21:23 -12.2 °C -15.2 °C 34428.8 hPa WNW 47.6 km/h 47.6 km/h 69 % 0 mm 0.0 W/m2 CLR
21:28 -12.2 °C -15.2 °C 34428.8 hPa WNW 36.2 km/h 36.2 km/h 69 % 0 mm 0.0 W/m2 CLR
21:33 -12.2 °C -15.2 °C 34428.8 hPa West 29.8 km/h 29.8 km/h 69 % 0 mm 0.0 W/m2 CLR
21:38 -12.2 °C -15.2 °C 34428.8 hPa West 28.5 km/h 28.5 km/h 69 % 0 mm 0.0 W/m2 CLR
21:43 -12.2 °C -15.2 °C 34442.4 hPa SW 26.9 km/h 26.9 km/h 69 % 0 mm 0.0 W/m2 CLR
21:48 -12.2 °C -15.2 °C 34442.4 hPa WNW 25.9 km/h 25.9 km/h 69 % 0 mm 0.0 W/m2 CLR
21:53 -12.2 °C -15.2 °C 34442.4 hPa WNW 35.7 km/h 35.7 km/h 69 % 0 mm 0.0 W/m2 CLR
21:58 -12.2 °C -15.2 °C 34442.4 hPa WNW 50.7 km/h 50.7 km/h 69 % 0 mm 0.0 W/m2 CLR
22:03 -12.2 °C -15.2 °C 34442.4 hPa WNW 41.7 km/h 41.7 km/h 69 % 0 mm 0.0 W/m2 CLR
22:08 -12.2 °C -15.2 °C 34428.8 hPa NW 50.7 km/h 50.7 km/h 69 % 0 mm 0.0 W/m2 CLR
22:13 -12.3 °C -15.3 °C 34428.8 hPa WNW 56.6 km/h 56.6 km/h 69 % 0 mm 0.0 W/m2 CLR
22:18 -12.3 °C -15.3 °C 34442.4 hPa NW 47.6 km/h 47.6 km/h 69 % 0 mm 0.0 W/m2 CLR
22:23 -12.3 °C -15.3 °C 34442.4 hPa WNW 49.2 km/h 49.2 km/h 69 % 0 mm 0.0 W/m2 CLR
22:28 -12.3 °C -15.3 °C 34428.8 hPa NNW 59.5 km/h 59.5 km/h 69 % 0 mm 0.0 W/m2 CLR
22:33 -12.3 °C -15.2 °C 34428.8 hPa NW 50.7 km/h 50.7 km/h 70 % 0 mm 0.0 W/m2 CLR
22:38 -12.3 °C -15.4 °C 34442.4 hPa NW 53.6 km/h 53.6 km/h 69 % 0 mm 0.0 W/m2 CLR
22:43 -12.3 °C -15.4 °C 34442.4 hPa NW 56.6 km/h 56.6 km/h 69 % 0 mm 0.0 W/m2 CLR
22:48 -12.4 °C -15.4 °C 34442.4 hPa WNW 56.6 km/h 56.6 km/h 69 % 0 mm 0.0 W/m2 CLR
22:53 -12.4 °C -15.4 °C 34442.4 hPa WNW 53.6 km/h 53.6 km/h 69 % 0 mm 0.0 W/m2 CLR
22:54 -12.4 °C -15.4 °C 34452.6 hPa West 47.6 km/h 47.6 km/h 69 % 0 mm 0.0 W/m2 CLR
22:59 -12.4 °C -15.4 °C 34452.6 hPa WNW 38.8 km/h 38.8 km/h 69 % 0 mm 0.0 W/m2 CLR
23:04 -12.4 °C -15.4 °C 34452.6 hPa West 47.6 km/h 47.6 km/h 69 % 0 mm 0.0 W/m2 CLR
23:09 -12.4 °C -15.4 °C 34442.4 hPa WNW 62.6 km/h 62.6 km/h 69 % 0 mm 0.0 W/m2 CLR
23:14 -12.4 °C -15.3 °C 34442.4 hPa WNW 50.7 km/h 50.7 km/h 70 % 0 mm 0.0 W/m2 CLR
23:19 -12.4 °C -15.4 °C 34452.6 hPa WNW 65.5 km/h 65.5 km/h 70 % 0 mm 0.0 W/m2 CLR
23:24 -12.5 °C -15.3 °C 34442.4 hPa West 44.7 km/h 44.7 km/h 71 % 0 mm 0.0 W/m2 CLR
23:29 -12.6 °C -15.2 °C 34442.4 hPa WNW 71.5 km/h 71.5 km/h 73 % 0 mm 0.0 W/m2 CLR
23:34 -12.7 °C -15.1 °C 34452.6 hPa West 44.1 km/h 44.1 km/h 75 % 0 mm 0.0 W/m2 CLR
23:39 -12.8 °C -15.1 °C 34452.6 hPa WNW 56.6 km/h 56.6 km/h 75 % 0 mm 0.0 W/m2 CLR
23:44 -12.8 °C -15.1 °C 34452.6 hPa WNW 53.6 km/h 53.6 km/h 76 % 0 mm 0.0 W/m2 CLR
23:49 -12.9 °C -15.1 °C 34442.4 hPa WNW 50.7 km/h 50.7 km/h 76 % 0 mm 0.0 W/m2 CLR
23:54 -12.9 °C -15.1 °C 34442.4 hPa West 47.6 km/h 47.6 km/h 77 % 7.62 mm 0.0 W/m2 RA
23:59 -12.9 °C -15.1 °C 34442.4 hPa WNW 50.7 km/h 50.7 km/h 77 % 7.62 mm 0.0 W/m2 CLR
Lo Temps de Massalio
Compliments of Weather Underground - 512 kb